sensor_id;sensor_type;location;lat;lon;timestamp;P1;P2;P0
74430;PMS7003;62863;52.062;23.764;2023-09-07T00:01:20;23.8;21.2;16.6
74430;PMS7003;62863;52.062;23.764;2023-09-07T00:06:10;19.8;18;13.8
74430;PMS7003;62863;52.062;23.764;2023-09-07T00:11:10;20.6;19.2;15.2
74430;PMS7003;62863;52.062;23.764;2023-09-07T00:15:58;20.4;17.4;12.2
74430;PMS7003;62863;52.062;23.764;2023-09-07T00:20:42;20.4;18.4;14.6
74430;PMS7003;62863;52.062;23.764;2023-09-07T00:26:20;20.5;17;12.3
74430;PMS7003;62863;52.062;23.764;2023-09-07T00:30:50;20.6;18.6;13.4
74430;PMS7003;62863;52.062;23.764;2023-09-07T00:35:40;18.2;17.2;13.4
74430;PMS7003;62863;52.062;23.764;2023-09-07T00:40:42;20.6;18.4;14.4
74430;PMS7003;62863;52.062;23.764;2023-09-07T00:46:20;21.6;19.4;14.4
74430;PMS7003;62863;52.062;23.764;2023-09-07T00:51:20;25;21.8;16.6
74430;PMS7003;62863;52.062;23.764;2023-09-07T00:56:10;25;23.2;17.6
74430;PMS7003;62863;52.062;23.764;2023-09-07T01:00:50;25.2;22.2;17.2
74430;PMS7003;62863;52.062;23.764;2023-09-07T01:06:12;25;22.4;16.8
74430;PMS7003;62863;52.062;23.764;2023-09-07T01:11:16;26;20.8;15.4
74430;PMS7003;62863;52.062;23.764;2023-09-07T01:16:20;22.8;19;14.6
74430;PMS7003;62863;52.062;23.764;2023-09-07T01:20:40;22.6;20.2;15
74430;PMS7003;62863;52.062;23.764;2023-09-07T01:25:40;22.3;20;15.8
74430;PMS7003;62863;52.062;23.764;2023-09-07T01:30:40;24.4;21.6;15.6
74430;PMS7003;62863;52.062;23.764;2023-09-07T01:35:58;23.8;22.4;16
74430;PMS7003;62863;52.062;23.764;2023-09-07T01:41:20;22.8;20.4;15.2
74430;PMS7003;62863;52.062;23.764;2023-09-07T01:45:52;21.8;19.6;15
74430;PMS7003;62863;52.062;23.764;2023-09-07T01:50:40;22.2;19;14.8
74430;PMS7003;62863;52.062;23.764;2023-09-07T01:56:10;19.2;16.6;12.4
74430;PMS7003;62863;52.062;23.764;2023-09-07T02:01:19;19.6;17.8;13.2
74430;PMS7003;62863;52.062;23.764;2023-09-07T02:06:06;20.2;17.6;12.6
74430;PMS7003;62863;52.062;23.764;2023-09-07T02:11:08;16.6;15.4;11.8
74430;PMS7003;62863;52.062;23.764;2023-09-07T02:16:06;19.6;17;12.4
74430;PMS7003;62863;52.062;23.764;2023-09-07T02:20:50;17.2;15.4;11.6
74430;PMS7003;62863;52.062;23.764;2023-09-07T02:25:40;18.3;17.5;12.5
74430;PMS7003;62863;52.062;23.764;2023-09-07T02:30:44;18.4;17.2;12.6
74430;PMS7003;62863;52.062;23.764;2023-09-07T02:36:00;18.2;17.4;11.6
74430;PMS7003;62863;52.062;23.764;2023-09-07T02:40:41;16.2;15;10.8
74430;PMS7003;62863;52.062;23.764;2023-09-07T02:46:10;16;14.6;11.2
74430;PMS7003;62863;52.062;23.764;2023-09-07T02:50:56;15;14;11
74430;PMS7003;62863;52.062;23.764;2023-09-07T02:56:06;16;14.4;10.4
74430;PMS7003;62863;52.062;23.764;2023-09-07T03:00:41;18;15.4;11
74430;PMS7003;62863;52.062;23.764;2023-09-07T03:05:46;14.6;12.8;9.8
74430;PMS7003;62863;52.062;23.764;2023-09-07T03:10:46;15.2;13.6;10.4
74430;PMS7003;62863;52.062;23.764;2023-09-07T03:15:53;15.6;14.2;11
74430;PMS7003;62863;52.062;23.764;2023-09-07T03:21:20;14.2;12.8;10.2
74430;PMS7003;62863;52.062;23.764;2023-09-07T03:26:10;14.3;13.5;9.8
74430;PMS7003;62863;52.062;23.764;2023-09-07T03:30:40;16.2;14.4;10.8
74430;PMS7003;62863;52.062;23.764;2023-09-07T03:36:10;14.2;13.2;9
74430;PMS7003;62863;52.062;23.764;2023-09-07T03:41:06;13.4;13;11
74430;PMS7003;62863;52.062;23.764;2023-09-07T03:46:18;15.6;13.4;10.4
74430;PMS7003;62863;52.062;23.764;2023-09-07T03:50:46;17;15.4;10.4
74430;PMS7003;62863;52.062;23.764;2023-09-07T03:55:40;15.4;13;9.4
74430;PMS7003;62863;52.062;23.764;2023-09-07T04:00:46;15.4;13.8;10.2
74430;PMS7003;62863;52.062;23.764;2023-09-07T04:06:07;15.8;13.2;10
74430;PMS7003;62863;52.062;23.764;2023-09-07T04:11:20;15.4;13.8;10
74430;PMS7003;62863;52.062;23.764;2023-09-07T04:16:10;14.6;13;9.6
74430;PMS7003;62863;52.062;23.764;2023-09-07T04:20:42;15.4;14.2;10.4
74430;PMS7003;62863;52.062;23.764;2023-09-07T04:26:11;14.6;13.6;10.6
74430;PMS7003;62863;52.062;23.764;2023-09-07T04:31:06;14.5;14.3;10.3
74430;PMS7003;62863;52.062;23.764;2023-09-07T04:36:18;16;13.6;10.2
74430;PMS7003;62863;52.062;23.764;2023-09-07T04:40:40;15;12;9.8
74430;PMS7003;62863;52.062;23.764;2023-09-07T04:45:46;14.8;13.4;10
74430;PMS7003;62863;52.062;23.764;2023-09-07T04:50:46;13.4;13.2;9.8
74430;PMS7003;62863;52.062;23.764;2023-09-07T04:55:58;16.8;14.2;10.4
74430;PMS7003;62863;52.062;23.764;2023-09-07T05:01:18;14.4;13.2;10
74430;PMS7003;62863;52.062;23.764;2023-09-07T05:05:54;15.2;14;11
74430;PMS7003;62863;52.062;23.764;2023-09-07T05:10:40;16.4;14.6;11
74430;PMS7003;62863;52.062;23.764;2023-09-07T05:15:54;17;15.4;11.2
74430;PMS7003;62863;52.062;23.764;2023-09-07T05:21:00;14.6;13.8;10.8
74430;PMS7003;62863;52.062;23.764;2023-09-07T05:26:06;15.6;14.6;11
74430;PMS7003;62863;52.062;23.764;2023-09-07T05:31:08;16.3;14.3;10.8
74430;PMS7003;62863;52.062;23.764;2023-09-07T05:35:46;13.4;12.4;9.6
74430;PMS7003;62863;52.062;23.764;2023-09-07T05:41:06;14;12.6;10
74430;PMS7003;62863;52.062;23.764;2023-09-07T05:46:06;14;11.8;9
74430;PMS7003;62863;52.062;23.764;2023-09-07T05:51:06;11.6;10.4;8
74430;PMS7003;62863;52.062;23.764;2023-09-07T05:56:04;9.2;9;6.8
74430;PMS7003;62863;52.062;23.764;2023-09-07T06:00:48;11.6;9.8;7.2
74430;PMS7003;62863;52.062;23.764;2023-09-07T06:05:46;9.4;8.4;6.4
74430;PMS7003;62863;52.062;23.764;2023-09-07T06:11:18;7.8;7.8;6.2
74430;PMS7003;62863;52.062;23.764;2023-09-07T06:15:46;7.4;6.6;5.2
74430;PMS7003;62863;52.062;23.764;2023-09-07T06:20:40;8.8;7.2;5.6
74430;PMS7003;62863;52.062;23.764;2023-09-07T06:25:40;7.4;6.8;6
74430;PMS7003;62863;52.062;23.764;2023-09-07T06:31:06;9.5;8.5;6.5
74430;PMS7003;62863;52.062;23.764;2023-09-07T06:36:18;7.4;5.8;5
74430;PMS7003;62863;52.062;23.764;2023-09-07T06:41:06;8.2;6.4;5.2
74430;PMS7003;62863;52.062;23.764;2023-09-07T06:46:05;7.4;7.4;5.8
74430;PMS7003;62863;52.062;23.764;2023-09-07T06:50:50;8.6;8;6.2
74430;PMS7003;62863;52.062;23.764;2023-09-07T06:55:44;9.6;8.6;7.6
74430;PMS7003;62863;52.062;23.764;2023-09-07T07:01:16;7.2;6.6;5.4
74430;PMS7003;62863;52.062;23.764;2023-09-07T07:05:50;7.8;6.4;5.4
74430;PMS7003;62863;52.062;23.764;2023-09-07T07:10:38;7.8;7.8;6
74430;PMS7003;62863;52.062;23.764;2023-09-07T07:15:58;9.8;9;7.4
74430;PMS7003;62863;52.062;23.764;2023-09-07T07:21:00;8.4;7.8;7
74430;PMS7003;62863;52.062;23.764;2023-09-07T07:26:19;7.4;6.6;5.8
74430;PMS7003;62863;52.062;23.764;2023-09-07T07:30:42;7;6.8;5.4
74430;PMS7003;62863;52.062;23.764;2023-09-07T07:35:42;7;7;5.8
74430;PMS7003;62863;52.062;23.764;2023-09-07T07:40:50;9.6;8.6;6.8
74430;PMS7003;62863;52.062;23.764;2023-09-07T07:45:41;6.6;6.6;5.4
74430;PMS7003;62863;52.062;23.764;2023-09-07T07:51:18;7.4;6.2;5.4
74430;PMS7003;62863;52.062;23.764;2023-09-07T07:55:41;9.4;8.8;6.8
74430;PMS7003;62863;52.062;23.764;2023-09-07T08:00:47;8;7.2;6
74430;PMS7003;62863;52.062;23.764;2023-09-07T08:05:41;9.2;8;6.4
74430;PMS7003;62863;52.062;23.764;2023-09-07T08:11:07;7.3;6.3;5
74430;PMS7003;62863;52.062;23.764;2023-09-07T08:16:17;8;7;5
74430;PMS7003;62863;52.062;23.764;2023-09-07T08:21:06;8;7.4;6.2
74430;PMS7003;62863;52.062;23.764;2023-09-07T08:25:55;8.6;7;5.8
74430;PMS7003;62863;52.062;23.764;2023-09-07T08:30:47;6.6;6.2;4.8
74430;PMS7003;62863;52.062;23.764;2023-09-07T08:35:40;7;6.6;5.4
74430;PMS7003;62863;52.062;23.764;2023-09-07T08:41:06;8;7.4;6
74430;PMS7003;62863;52.062;23.764;2023-09-07T08:45:55;10.4;9.2;7
74430;PMS7003;62863;52.062;23.764;2023-09-07T08:50:47;8;7.8;6
74430;PMS7003;62863;52.062;23.764;2023-09-07T08:55:47;8.2;8;6
74430;PMS7003;62863;52.062;23.764;2023-09-07T09:00:55;8;7.2;5.6
74430;PMS7003;62863;52.062;23.764;2023-09-07T09:06:17;7.2;6.6;5.4
74430;PMS7003;62863;52.062;23.764;2023-09-07T09:10:58;7;6.2;4.8
74430;PMS7003;62863;52.062;23.764;2023-09-07T09:15:58;8.5;6.5;4.8
74430;PMS7003;62863;52.062;23.764;2023-09-07T09:20:44;8;6.6;4.8
74430;PMS7003;62863;52.062;23.764;2023-09-07T09:25:41;7.4;7.2;5.6
74430;PMS7003;62863;52.062;23.764;2023-09-07T09:31:15;8;7.2;5.4
74430;PMS7003;62863;52.062;23.764;2023-09-07T09:35:42;8.8;7.4;5.8
74430;PMS7003;62863;52.062;23.764;2023-09-07T09:40:41;9.2;8;6.2
74430;PMS7003;62863;52.062;23.764;2023-09-07T09:45:41;8.4;6.8;5.6
74430;PMS7003;62863;52.062;23.764;2023-09-07T09:51:05;6.6;6.2;5
74430;PMS7003;62863;52.062;23.764;2023-09-07T09:56:15;8.6;7.8;6
74430;PMS7003;62863;52.062;23.764;2023-09-07T10:01:05;8.2;7;5.6
74430;PMS7003;62863;52.062;23.764;2023-09-07T10:06:08;8;6.8;5.6
74430;PMS7003;62863;52.062;23.764;2023-09-07T10:10:41;8.4;7.6;6
74430;PMS7003;62863;52.062;23.764;2023-09-07T10:15:59;7;6.5;5
74430;PMS7003;62863;52.062;23.764;2023-09-07T10:21:15;8.6;7.6;5.4
74430;PMS7003;62863;52.062;23.764;2023-09-07T10:25:53;9.4;8.8;7
74430;PMS7003;62863;52.062;23.764;2023-09-07T10:30:58;8.2;7.2;5.8
74430;PMS7003;62863;52.062;23.764;2023-09-07T10:35:45;6.8;6.2;5.2
74430;PMS7003;62863;52.062;23.764;2023-09-07T10:41:05;6;5.6;4.4
74430;PMS7003;62863;52.062;23.764;2023-09-07T10:46:15;5.2;5;3.6
74430;PMS7003;62863;52.062;23.764;2023-09-07T10:50:43;5.6;5.2;3.8
74430;PMS7003;62863;52.062;23.764;2023-09-07T10:56:03;5.8;4.4;3.4
74430;PMS7003;62863;52.062;23.764;2023-09-07T11:00:55;6.4;5.2;3.6
74430;PMS7003;62863;52.062;23.764;2023-09-07T11:05:41;6.6;6.4;4.6
74430;PMS7003;62863;52.062;23.764;2023-09-07T11:11:17;6;5.8;4.4
74430;PMS7003;62863;52.062;23.764;2023-09-07T11:15:53;6;5.5;4.5
74430;PMS7003;62863;52.062;23.764;2023-09-07T11:20:55;5.8;5.2;3.4
74430;PMS7003;62863;52.062;23.764;2023-09-07T11:25:47;7.6;6.4;4.6
74430;PMS7003;62863;52.062;23.764;2023-09-07T11:31:05;5.2;4.8;3.6
74430;PMS7003;62863;52.062;23.764;2023-09-07T11:36:17;5.4;4.4;3
74430;PMS7003;62863;52.062;23.764;2023-09-07T11:41:07;8.4;6.8;5.2
74430;PMS7003;62863;52.062;23.764;2023-09-07T11:46:03;5.8;5.4;4.4
74430;PMS7003;62863;52.062;23.764;2023-09-07T11:50:49;5;4.8;3.8
74430;PMS7003;62863;52.062;23.764;2023-09-07T11:55:47;6.8;6.3;3.5
74430;PMS7003;62863;52.062;23.764;2023-09-07T12:01:17;5.8;5.6;4.4
74430;PMS7003;62863;52.062;23.764;2023-09-07T12:05:41;5.2;4.2;3.4
74430;PMS7003;62863;52.062;23.764;2023-09-07T12:11:15;4.4;3.8;2.8
74430;PMS7003;62863;52.062;23.764;2023-09-07T12:15:39;4;3.6;2.8
74430;PMS7003;62863;52.062;23.764;2023-09-07T12:21:01;3.8;3.6;2.2
74430;PMS7003;62863;52.062;23.764;2023-09-07T12:26:15;4.8;4.2;2.8
74430;PMS7003;62863;52.062;23.764;2023-09-07T12:31:07;4.8;4;3.4
74430;PMS7003;62863;52.062;23.764;2023-09-07T12:36:03;4.4;4;3.2
74430;PMS7003;62863;52.062;23.764;2023-09-07T12:40:55;3.8;3.4;2.4
74430;PMS7003;62863;52.062;23.764;2023-09-07T12:45:41;6;4.4;3.2
74430;PMS7003;62863;52.062;23.764;2023-09-07T12:51:15;5;4.4;2.6
74430;PMS7003;62863;52.062;23.764;2023-09-07T12:55:47;3.8;3.3;3.3
74430;PMS7003;62863;52.062;23.764;2023-09-07T13:00:47;4.8;3.6;2.4
74430;PMS7003;62863;52.062;23.764;2023-09-07T13:05:41;3;3;2.4
74430;PMS7003;62863;52.062;23.764;2023-09-07T13:11:07;4.2;3.4;2.4
74430;PMS7003;62863;52.062;23.764;2023-09-07T13:16:17;2.6;2.6;2.4
74430;PMS7003;62863;52.062;23.764;2023-09-07T13:20:41;3.8;3.2;2.6
74430;PMS7003;62863;52.062;23.764;2023-09-07T13:25:43;4.4;3.4;2.6
74430;PMS7003;62863;52.062;23.764;2023-09-07T13:30:49;4.4;4;3
74430;PMS7003;62863;52.062;23.764;2023-09-07T13:35:53;13.6;11.4;8.6
74430;PMS7003;62863;52.062;23.764;2023-09-07T13:41:17;17.2;15;10.6
74430;PMS7003;62863;52.062;23.764;2023-09-07T13:45:47;5.4;5;3.4
74430;PMS7003;62863;52.062;23.764;2023-09-07T13:50:41;3.2;2.8;2.2
74430;PMS7003;62863;52.062;23.764;2023-09-07T13:55:53;2.8;2.8;1.8
74430;PMS7003;62863;52.062;23.764;2023-09-07T14:01:07;3;2.8;2
74430;PMS7003;62863;52.062;23.764;2023-09-07T14:06:17;3.6;3.4;2.8
74430;PMS7003;62863;52.062;23.764;2023-09-07T14:10:47;4.2;4;3
74430;PMS7003;62863;52.062;23.764;2023-09-07T14:16:03;3;2.4;1.8
74430;PMS7003;62863;52.062;23.764;2023-09-07T14:20:55;3.8;3;2.4
74430;PMS7003;62863;52.062;23.764;2023-09-07T14:25:47;2.6;2.4;2
74430;PMS7003;62863;52.062;23.764;2023-09-07T14:31:17;4.2;2.8;2.2
74430;PMS7003;62863;52.062;23.764;2023-09-07T14:35:41;3;2.8;1.8
74430;PMS7003;62863;52.062;23.764;2023-09-07T14:40:47;3.2;2.6;1.6
74430;PMS7003;62863;52.062;23.764;2023-09-07T14:45:51;2.8;2.4;2.2
74430;PMS7003;62863;52.062;23.764;2023-09-07T14:51:07;3.8;3.4;2.2
74430;PMS7003;62863;52.062;23.764;2023-09-07T14:55:43;2.3;2.3;2
74430;PMS7003;62863;52.062;23.764;2023-09-07T15:00:47;3.8;2.8;2.4
74430;PMS7003;62863;52.062;23.764;2023-09-07T15:06:17;5;3.6;2.6
74430;PMS7003;62863;52.062;23.764;2023-09-07T15:10:55;4.4;3.4;2.4
74430;PMS7003;62863;52.062;23.764;2023-09-07T15:15:53;4.6;3.4;2.6
74430;PMS7003;62863;52.062;23.764;2023-09-07T15:21:17;3;2.6;2
74430;PMS7003;62863;52.062;23.764;2023-09-07T15:25:41;3.4;2.4;2
74430;PMS7003;62863;52.062;23.764;2023-09-07T15:30:41;3.6;3;1.6
74430;PMS7003;62863;52.062;23.764;2023-09-07T15:35:41;3.2;2.8;2.2
74430;PMS7003;62863;52.062;23.764;2023-09-07T15:41:01;3.5;2.3;2.3
74430;PMS7003;62863;52.062;23.764;2023-09-07T15:46:17;3.6;3.4;2.6
74430;PMS7003;62863;52.062;23.764;2023-09-07T15:50:41;4.4;3.6;2.6
74430;PMS7003;62863;52.062;23.764;2023-09-07T15:56:03;4;3.4;2.8
74430;PMS7003;62863;52.062;23.764;2023-09-07T16:00:57;6.6;5.2;3.4
74430;PMS7003;62863;52.062;23.764;2023-09-07T16:05:47;7.2;6.4;4.8
74430;PMS7003;62863;52.062;23.764;2023-09-07T16:11:19;10;8.5;6
74430;PMS7003;62863;52.062;23.764;2023-09-07T16:15:55;7;6.4;4.6
74430;PMS7003;62863;52.062;23.764;2023-09-07T16:20:49;9.2;7.4;5.6
74430;PMS7003;62863;52.062;23.764;2023-09-07T16:25:59;13.4;9.6;7.4
74430;PMS7003;62863;52.062;23.764;2023-09-07T16:31:07;11.2;10.2;7
74430;PMS7003;62863;52.062;23.764;2023-09-07T16:36:19;13.6;11.4;8.4
74430;PMS7003;62863;52.062;23.764;2023-09-07T16:40:47;20;15.8;11.4
74430;PMS7003;62863;52.062;23.764;2023-09-07T16:46:05;24.8;22.4;15.8
74430;PMS7003;62863;52.062;23.764;2023-09-07T16:51:11;40.4;33.2;21.6
74430;PMS7003;62863;52.062;23.764;2023-09-07T16:55:47;38.2;32.4;20.6
74430;PMS7003;62863;52.062;23.764;2023-09-07T17:01:19;47.6;38.2;25.4
74430;PMS7003;62863;52.062;23.764;2023-09-07T17:05:47;55.4;43.8;27.4
74430;PMS7003;62863;52.062;23.764;2023-09-07T17:10:41;54.8;43.3;27.3
74430;PMS7003;62863;52.062;23.764;2023-09-07T17:15:41;59.2;46.4;29
74430;PMS7003;62863;52.062;23.764;2023-09-07T17:21:07;61.8;48.4;31.2
74430;PMS7003;62863;52.062;23.764;2023-09-07T17:26:19;70.2;53.6;33.2
74430;PMS7003;62863;52.062;23.764;2023-09-07T17:31:19;86.4;72.2;43
74430;PMS7003;62863;52.062;23.764;2023-09-07T17:36:05;76;60.6;35.8
74430;PMS7003;62863;52.062;23.764;2023-09-07T17:40:51;76.2;61.8;36.2
74430;PMS7003;62863;52.062;23.764;2023-09-07T17:45:59;66;50.3;32
74430;PMS7003;62863;52.062;23.764;2023-09-07T17:51:19;54;41.4;26.2
74430;PMS7003;62863;52.062;23.764;2023-09-07T17:56:04;42.6;34.6;22.4
74430;PMS7003;62863;52.062;23.764;2023-09-07T18:00:47;37.8;31.4;20.2
74430;PMS7003;62863;52.062;23.764;2023-09-07T18:05:53;70;55.4;32
74430;PMS7003;62863;52.062;23.764;2023-09-07T18:11:07;40.6;34;21
74430;PMS7003;62863;52.062;23.764;2023-09-07T18:16:15;29;25.5;16.5
74430;PMS7003;62863;52.062;23.764;2023-09-07T18:21:02;27.2;22.8;15.2
74430;PMS7003;62863;52.062;23.764;2023-09-07T18:26:09;27.8;24.4;16.2
74430;PMS7003;62863;52.062;23.764;2023-09-07T18:31:13;23.8;21.2;14.4
74430;PMS7003;62863;52.062;23.764;2023-09-07T18:36:01;25;20.8;13.6
74430;PMS7003;62863;52.062;23.764;2023-09-07T18:41:21;28;24.2;16.4
74430;PMS7003;62863;52.062;23.764;2023-09-07T18:46:02;29;24.4;16.2
74430;PMS7003;62863;52.062;23.764;2023-09-07T18:50:41;29;26.4;17.2
74430;PMS7003;62863;52.062;23.764;2023-09-07T18:56:07;35.8;30.4;20.2
74430;PMS7003;62863;52.062;23.764;2023-09-07T19:01:11;45.2;35;22.8
74430;PMS7003;62863;52.062;23.764;2023-09-07T19:06:21;47.6;37.4;24.2
74430;PMS7003;62863;52.062;23.764;2023-09-07T19:10:47;52;40;25.8
74430;PMS7003;62863;52.062;23.764;2023-09-07T19:16:10;50.3;40.3;25.3
74430;PMS7003;62863;52.062;23.764;2023-09-07T19:21:21;52.6;41.2;26
74430;PMS7003;62863;52.062;23.764;2023-09-07T19:25:41;47.2;38;24.2
74430;PMS7003;62863;52.062;23.764;2023-09-07T19:31:19;49.6;39.6;25.6
74430;PMS7003;62863;52.062;23.764;2023-09-07T19:35:59;45.6;35.8;23.4
74430;PMS7003;62863;52.062;23.764;2023-09-07T19:40:41;44.8;36.2;23.4
74430;PMS7003;62863;52.062;23.764;2023-09-07T19:45:53;34.4;29.8;20
74430;PMS7003;62863;52.062;23.764;2023-09-07T19:51:07;31.8;27.6;18.4
74430;PMS7003;62863;52.062;23.764;2023-09-07T19:56:21;23.6;20.2;14.4
74430;PMS7003;62863;52.062;23.764;2023-09-07T20:00:59;20.6;17.2;12.6
74430;PMS7003;62863;52.062;23.764;2023-09-07T20:06:07;19;18.2;11.8
74430;PMS7003;62863;52.062;23.764;2023-09-07T20:10:51;18.6;17;12
74430;PMS7003;62863;52.062;23.764;2023-09-07T20:15:47;20;16.5;12.8
74430;PMS7003;62863;52.062;23.764;2023-09-07T20:21:21;17.2;14.6;10.2
74430;PMS7003;62863;52.062;23.764;2023-09-07T20:26:03;17.6;17.2;12.2
74430;PMS7003;62863;52.062;23.764;2023-09-07T20:30:41;22.6;20.6;14.6
74430;PMS7003;62863;52.062;23.764;2023-09-07T20:35:41;26.4;21.2;15.2
74430;PMS7003;62863;52.062;23.764;2023-09-07T20:41:07;25.4;22.4;14.8
74430;PMS7003;62863;52.062;23.764;2023-09-07T20:46:19;28;24.4;15.4
74430;PMS7003;62863;52.062;23.764;2023-09-07T20:50:59;27;22.4;15.4
74430;PMS7003;62863;52.062;23.764;2023-09-07T20:56:01;18.6;16.8;11.6
74430;PMS7003;62863;52.062;23.764;2023-09-07T21:00:41;16.4;15;10.2
74430;PMS7003;62863;52.062;23.764;2023-09-07T21:06:13;24;19.6;13.2
74430;PMS7003;62863;52.062;23.764;2023-09-07T21:11:21;19.8;16.6;12.4
74430;PMS7003;62863;52.062;23.764;2023-09-07T21:15:47;17.5;15.8;12
74430;PMS7003;62863;52.062;23.764;2023-09-07T21:20:41;19.2;16;11.6
74430;PMS7003;62863;52.062;23.764;2023-09-07T21:25:41;21;18;12.8
74430;PMS7003;62863;52.062;23.764;2023-09-07T21:31:07;18.2;15.4;11
74430;PMS7003;62863;52.062;23.764;2023-09-07T21:36:23;16.2;15.4;10.6
74430;PMS7003;62863;52.062;23.764;2023-09-07T21:40:41;19;15.2;10
74430;PMS7003;62863;52.062;23.764;2023-09-07T21:46:21;16.4;14.8;11.2
74430;PMS7003;62863;52.062;23.764;2023-09-07T21:51:09;16.2;14.8;11.2
74430;PMS7003;62863;52.062;23.764;2023-09-07T21:55:53;17;15.4;11
74430;PMS7003;62863;52.062;23.764;2023-09-07T22:01:07;16.6;14.4;10.6
74430;PMS7003;62863;52.062;23.764;2023-09-07T22:05:41;18.8;15.6;12
74430;PMS7003;62863;52.062;23.764;2023-09-07T22:10:41;17.6;14.6;11.2
74430;PMS7003;62863;52.062;23.764;2023-09-07T22:16:19;15.8;15;10.8
74430;PMS7003;62863;52.062;23.764;2023-09-07T22:20:59;14.8;12.2;9.2
74430;PMS7003;62863;52.062;23.764;2023-09-07T22:26:21;13.2;10.8;8
74430;PMS7003;62863;52.062;23.764;2023-09-07T22:31:19;14.6;11.4;8
74430;PMS7003;62863;52.062;23.764;2023-09-07T22:35:55;12.8;11.2;7.6
74430;PMS7003;62863;52.062;23.764;2023-09-07T22:41:07;11.6;10;7.4
74430;PMS7003;62863;52.062;23.764;2023-09-07T22:45:47;11;9.2;6.2
74430;PMS7003;62863;52.062;23.764;2023-09-07T22:51:07;13.2;10.4;7
74430;PMS7003;62863;52.062;23.764;2023-09-07T22:56:11;12.8;10.8;7.8
74430;PMS7003;62863;52.062;23.764;2023-09-07T23:00:47;9.6;8.4;6.2
74430;PMS7003;62863;52.062;23.764;2023-09-07T23:06:21;10.2;9.6;6.8
74430;PMS7003;62863;52.062;23.764;2023-09-07T23:10:41;8.8;7.6;6.4
74430;PMS7003;62863;52.062;23.764;2023-09-07T23:16:07;8.8;7.6;6.2
74430;PMS7003;62863;52.062;23.764;2023-09-07T23:21:11;5.8;5.3;4.3
74430;PMS7003;62863;52.062;23.764;2023-09-07T23:25:49;9.6;7.8;5.4
74430;PMS7003;62863;52.062;23.764;2023-09-07T23:31:07;8;7;5
74430;PMS7003;62863;52.062;23.764;2023-09-07T23:35:53;8.2;7.6;5.2
74430;PMS7003;62863;52.062;23.764;2023-09-07T23:41:07;6.4;5.4;4.8
74430;PMS7003;62863;52.062;23.764;2023-09-07T23:45:59;8;5.8;4.8
74430;PMS7003;62863;52.062;23.764;2023-09-07T23:51:01;9.8;7.3;6
74430;PMS7003;62863;52.062;23.764;2023-09-07T23:56:21;9;8;5.6
